sensor_id;sensor_type;location;lat;lon;timestamp;pressure;altitude;pressure_sealevel;temperature;humidity
9415;BME280;4746;35.664;139.738;2023-05-11T00:00:42;100635.44;;;24.94;33.01
9415;BME280;4746;35.664;139.738;2023-05-11T00:03:10;100629.16;;;24.98;33.26
9415;BME280;4746;35.664;139.738;2023-05-11T00:05:38;100630.47;;;25.08;32.80
9415;BME280;4746;35.664;139.738;2023-05-11T00:08:05;100632.81;;;25.14;33.09
9415;BME280;4746;35.664;139.738;2023-05-11T00:10:33;100643.88;;;25.20;32.70
9415;BME280;4746;35.664;139.738;2023-05-11T00:13:00;100635.72;;;25.26;32.87
9415;BME280;4746;35.664;139.738;2023-05-11T00:15:28;100634.97;;;25.24;32.85
9415;BME280;4746;35.664;139.738;2023-05-11T00:17:56;100631.25;;;25.28;31.78
9415;BME280;4746;35.664;139.738;2023-05-11T00:20:23;100632.69;;;25.35;32.13
9415;BME280;4746;35.664;139.738;2023-05-11T00:22:51;100632.41;;;25.41;32.12
9415;BME280;4746;35.664;139.738;2023-05-11T00:25:18;100626.28;;;25.40;31.94
9415;BME280;4746;35.664;139.738;2023-05-11T00:27:46;100639.91;;;25.48;31.79
9415;BME280;4746;35.664;139.738;2023-05-11T00:30:14;100631.88;;;25.51;31.63
9415;BME280;4746;35.664;139.738;2023-05-11T00:32:43;100634.28;;;25.56;31.82
9415;BME280;4746;35.664;139.738;2023-05-11T00:35:11;100630.59;;;25.60;31.81
9415;BME280;4746;35.664;139.738;2023-05-11T00:37:39;100632.81;;;25.69;31.82
9415;BME280;4746;35.664;139.738;2023-05-11T00:40:08;100636.09;;;25.74;31.85
9415;BME280;4746;35.664;139.738;2023-05-11T00:42:35;100632.34;;;25.79;31.50
9415;BME280;4746;35.664;139.738;2023-05-11T00:45:03;100633.03;;;25.83;31.39
9415;BME280;4746;35.664;139.738;2023-05-11T00:47:31;100633.97;;;25.82;31.41
9415;BME280;4746;35.664;139.738;2023-05-11T00:49:58;100634.88;;;25.81;31.43
9415;BME280;4746;35.664;139.738;2023-05-11T00:52:26;100632.25;;;25.81;31.54
9415;BME280;4746;35.664;139.738;2023-05-11T00:54:54;100637.22;;;25.87;31.29
9415;BME280;4746;35.664;139.738;2023-05-11T00:57:22;100632.75;;;25.89;31.62
9415;BME280;4746;35.664;139.738;2023-05-11T00:59:49;100638.84;;;25.89;32.05
9415;BME280;4746;35.664;139.738;2023-05-11T01:02:17;100631.34;;;25.98;32.20
9415;BME280;4746;35.664;139.738;2023-05-11T01:04:45;100622.41;;;26.02;31.95
9415;BME280;4746;35.664;139.738;2023-05-11T01:10:34;100627.03;;;26.14;32.09
9415;BME280;4746;35.664;139.738;2023-05-11T01:13:49;100620.25;;;26.10;32.39
9415;BME280;4746;35.664;139.738;2023-05-11T01:16:22;100628.56;;;26.01;32.31
9415;BME280;4746;35.664;139.738;2023-05-11T01:18:59;100627.50;;;26.05;32.51
9415;BME280;4746;35.664;139.738;2023-05-11T01:21:31;100628.06;;;26.12;31.82
9415;BME280;4746;35.664;139.738;2023-05-11T01:30:16;100621.44;;;26.39;32.19
9415;BME280;4746;35.664;139.738;2023-05-11T01:32:47;100622.44;;;26.36;32.02
9415;BME280;4746;35.664;139.738;2023-05-11T01:35:24;100621.19;;;26.43;31.96
9415;BME280;4746;35.664;139.738;2023-05-11T01:37:56;100614.09;;;26.45;31.86
9415;BME280;4746;35.664;139.738;2023-05-11T01:40:30;100617.25;;;26.52;31.64
9415;BME280;4746;35.664;139.738;2023-05-11T01:43:06;100624.75;;;26.59;31.59
9415;BME280;4746;35.664;139.738;2023-05-11T01:45:39;100619.16;;;26.65;31.59
9415;BME280;4746;35.664;139.738;2023-05-11T01:48:15;100610.03;;;26.72;31.36
9415;BME280;4746;35.664;139.738;2023-05-11T01:50:45;100616.84;;;26.76;31.31
9415;BME280;4746;35.664;139.738;2023-05-11T01:53:16;100606.53;;;26.88;30.92
9415;BME280;4746;35.664;139.738;2023-05-11T01:55:46;100607.81;;;26.97;30.83
9415;BME280;4746;35.664;139.738;2023-05-11T01:58:17;100603.88;;;27.05;30.46
9415;BME280;4746;35.664;139.738;2023-05-11T02:00:50;100607.97;;;27.11;30.05
9415;BME280;4746;35.664;139.738;2023-05-11T02:03:21;100604.06;;;27.18;29.83
9415;BME280;4746;35.664;139.738;2023-05-11T02:05:53;100599.13;;;27.12;29.66
9415;BME280;4746;35.664;139.738;2023-05-11T02:08:21;100593.72;;;27.15;29.43
9415;BME280;4746;35.664;139.738;2023-05-11T02:10:52;100591.66;;;27.20;29.42
9415;BME280;4746;35.664;139.738;2023-05-11T02:13:22;100592.94;;;27.13;29.56
9415;BME280;4746;35.664;139.738;2023-05-11T02:15:55;100595.75;;;27.10;29.40
9415;BME280;4746;35.664;139.738;2023-05-11T02:18:23;100591.41;;;27.09;29.14
9415;BME280;4746;35.664;139.738;2023-05-11T02:20:51;100592.78;;;27.16;28.86
9415;BME280;4746;35.664;139.738;2023-05-11T02:23:21;100581.22;;;27.18;28.96
9415;BME280;4746;35.664;139.738;2023-05-11T02:25:51;100578.34;;;27.23;28.47
9415;BME280;4746;35.664;139.738;2023-05-11T02:28:19;100561.25;;;27.30;28.44
9415;BME280;4746;35.664;139.738;2023-05-11T02:30:53;100568.66;;;27.38;28.35
9415;BME280;4746;35.664;139.738;2023-05-11T02:33:30;100564.00;;;27.43;28.50
9415;BME280;4746;35.664;139.738;2023-05-11T02:35:58;100562.13;;;27.45;27.98
9415;BME280;4746;35.664;139.738;2023-05-11T02:38:33;100557.84;;;27.58;28.10
9415;BME280;4746;35.664;139.738;2023-05-11T02:41:11;100550.25;;;27.69;27.84
9415;BME280;4746;35.664;139.738;2023-05-11T02:43:48;100546.50;;;27.73;27.26
9415;BME280;4746;35.664;139.738;2023-05-11T02:46:30;100549.13;;;27.73;27.00
9415;BME280;4746;35.664;139.738;2023-05-11T02:49:06;100539.72;;;27.69;26.36
9415;BME280;4746;35.664;139.738;2023-05-11T02:51:42;100545.63;;;27.73;25.66
9415;BME280;4746;35.664;139.738;2023-05-11T02:54:13;100538.75;;;27.70;24.71
9415;BME280;4746;35.664;139.738;2023-05-11T02:56:43;100536.53;;;27.78;23.94
9415;BME280;4746;35.664;139.738;2023-05-11T02:59:11;100537.97;;;27.84;23.71
9415;BME280;4746;35.664;139.738;2023-05-11T03:01:40;100539.22;;;27.92;23.77
9415;BME280;4746;35.664;139.738;2023-05-11T03:04:08;100534.16;;;28.03;23.92
9415;BME280;4746;35.664;139.738;2023-05-11T03:06:38;100528.00;;;28.18;24.37
9415;BME280;4746;35.664;139.738;2023-05-11T03:09:06;100519.16;;;28.19;24.29
9415;BME280;4746;35.664;139.738;2023-05-11T03:11:34;100522.66;;;28.33;24.67
9415;BME280;4746;35.664;139.738;2023-05-11T03:14:02;100526.72;;;28.53;24.35
9415;BME280;4746;35.664;139.738;2023-05-11T03:16:31;100524.66;;;28.72;24.61
9415;BME280;4746;35.664;139.738;2023-05-11T03:19:01;100519.88;;;28.92;24.39
9415;BME280;4746;35.664;139.738;2023-05-11T03:21:29;100527.69;;;29.07;24.32
9415;BME280;4746;35.664;139.738;2023-05-11T03:23:59;100511.06;;;29.33;23.62
9415;BME280;4746;35.664;139.738;2023-05-11T03:26:29;100514.41;;;29.61;23.30
9415;BME280;4746;35.664;139.738;2023-05-11T03:29:00;100510.16;;;29.85;22.90
9415;BME280;4746;35.664;139.738;2023-05-11T03:31:29;100505.78;;;30.11;23.04
9415;BME280;4746;35.664;139.738;2023-05-11T03:33:57;100504.09;;;30.34;22.66
9415;BME280;4746;35.664;139.738;2023-05-11T03:36:26;100499.28;;;30.53;21.97
9415;BME280;4746;35.664;139.738;2023-05-11T03:38:55;100504.75;;;30.75;22.64
9415;BME280;4746;35.664;139.738;2023-05-11T03:41:26;100508.44;;;30.98;22.41
9415;BME280;4746;35.664;139.738;2023-05-11T03:43:58;100496.09;;;31.09;23.00
9415;BME280;4746;35.664;139.738;2023-05-11T03:46:27;100499.78;;;31.19;23.12
9415;BME280;4746;35.664;139.738;2023-05-11T03:48:56;100502.94;;;31.24;23.07
9415;BME280;4746;35.664;139.738;2023-05-11T03:51:26;100487.94;;;31.35;22.96
9415;BME280;4746;35.664;139.738;2023-05-11T03:53:54;100483.44;;;31.48;23.37
9415;BME280;4746;35.664;139.738;2023-05-11T03:56:22;100486.94;;;31.72;23.21
9415;BME280;4746;35.664;139.738;2023-05-11T03:58:51;100490.38;;;31.85;23.00
9415;BME280;4746;35.664;139.738;2023-05-11T04:01:19;100479.91;;;31.94;23.15
9415;BME280;4746;35.664;139.738;2023-05-11T04:03:51;100493.38;;;31.91;23.23
9415;BME280;4746;35.664;139.738;2023-05-11T04:06:19;100491.63;;;31.69;23.32
9415;BME280;4746;35.664;139.738;2023-05-11T04:08:49;100488.47;;;31.40;23.25
9415;BME280;4746;35.664;139.738;2023-05-11T04:11:16;100482.31;;;31.16;23.72
9415;BME280;4746;35.664;139.738;2023-05-11T04:13:44;100486.81;;;30.91;23.86
9415;BME280;4746;35.664;139.738;2023-05-11T04:16:11;100487.81;;;30.65;23.54
9415;BME280;4746;35.664;139.738;2023-05-11T04:18:45;100479.56;;;30.32;24.07
9415;BME280;4746;35.664;139.738;2023-05-11T04:21:12;100486.09;;;30.02;23.93
9415;BME280;4746;35.664;139.738;2023-05-11T04:23:40;100490.13;;;29.69;24.11
9415;BME280;4746;35.664;139.738;2023-05-11T04:26:07;100475.94;;;29.45;24.90
9415;BME280;4746;35.664;139.738;2023-05-11T04:28:35;100476.44;;;29.24;25.15
9415;BME280;4746;35.664;139.738;2023-05-11T04:31:02;100484.69;;;29.05;25.24
9415;BME280;4746;35.664;139.738;2023-05-11T04:33:30;100482.38;;;28.87;25.28
9415;BME280;4746;35.664;139.738;2023-05-11T04:35:58;100482.56;;;28.70;25.09
9415;BME280;4746;35.664;139.738;2023-05-11T04:38:25;100480.41;;;28.49;25.91
9415;BME280;4746;35.664;139.738;2023-05-11T04:40:53;100498.47;;;28.27;25.65
9415;BME280;4746;35.664;139.738;2023-05-11T04:43:20;100489.94;;;28.08;26.18
9415;BME280;4746;35.664;139.738;2023-05-11T04:45:52;100488.81;;;27.98;25.78
9415;BME280;4746;35.664;139.738;2023-05-11T04:48:19;100488.19;;;27.79;26.24
9415;BME280;4746;35.664;139.738;2023-05-11T04:50:47;100487.19;;;27.66;26.44
9415;BME280;4746;35.664;139.738;2023-05-11T04:53:14;100484.31;;;27.55;27.16
9415;BME280;4746;35.664;139.738;2023-05-11T04:55:42;100477.22;;;27.42;27.24
9415;BME280;4746;35.664;139.738;2023-05-11T04:58:10;100489.16;;;27.32;27.17
9415;BME280;4746;35.664;139.738;2023-05-11T05:00:37;100488.19;;;27.19;27.91
9415;BME280;4746;35.664;139.738;2023-05-11T05:03:05;100504.22;;;26.99;28.65
9415;BME280;4746;35.664;139.738;2023-05-11T05:05:33;100503.34;;;26.83;29.10
9415;BME280;4746;35.664;139.738;2023-05-11T05:08:00;100501.47;;;26.70;29.42
9415;BME280;4746;35.664;139.738;2023-05-11T05:10:28;100500.56;;;26.54;29.71
9415;BME280;4746;35.664;139.738;2023-05-11T05:12:55;100506.16;;;26.48;30.27
9415;BME280;4746;35.664;139.738;2023-05-11T05:15:23;100495.34;;;26.37;30.92
9415;BME280;4746;35.664;139.738;2023-05-11T05:17:51;100500.47;;;26.23;31.55
9415;BME280;4746;35.664;139.738;2023-05-11T05:20:20;100492.44;;;26.09;31.59
9415;BME280;4746;35.664;139.738;2023-05-11T05:22:47;100502.66;;;25.98;32.15
9415;BME280;4746;35.664;139.738;2023-05-11T05:25:15;100495.47;;;25.85;32.40
9415;BME280;4746;35.664;139.738;2023-05-11T05:27:42;100492.59;;;25.73;33.03
9415;BME280;4746;35.664;139.738;2023-05-11T05:30:10;100504.59;;;25.60;33.69
9415;BME280;4746;35.664;139.738;2023-05-11T05:32:38;100500.72;;;25.50;33.72
9415;BME280;4746;35.664;139.738;2023-05-11T05:35:06;100489.53;;;25.46;33.82
9415;BME280;4746;35.664;139.738;2023-05-11T05:37:33;100495.94;;;25.41;33.52
9415;BME280;4746;35.664;139.738;2023-05-11T05:40:04;100495.91;;;25.24;33.73
9415;BME280;4746;35.664;139.738;2023-05-11T05:42:32;100498.34;;;25.10;34.24
9415;BME280;4746;35.664;139.738;2023-05-11T05:44:59;100497.66;;;25.05;34.15
9415;BME280;4746;35.664;139.738;2023-05-11T05:47:27;100507.66;;;24.97;34.59
9415;BME280;4746;35.664;139.738;2023-05-11T05:49:54;100509.13;;;24.84;35.01
9415;BME280;4746;35.664;139.738;2023-05-11T05:52:22;100516.38;;;24.79;34.69
9415;BME280;4746;35.664;139.738;2023-05-11T05:54:51;100520.19;;;24.72;35.26
9415;BME280;4746;35.664;139.738;2023-05-11T05:57:18;100537.44;;;24.58;35.37
9415;BME280;4746;35.664;139.738;2023-05-11T05:59:46;100536.88;;;24.52;35.87
9415;BME280;4746;35.664;139.738;2023-05-11T06:02:13;100551.81;;;24.50;36.29
9415;BME280;4746;35.664;139.738;2023-05-11T06:04:41;100560.75;;;24.46;36.67
9415;BME280;4746;35.664;139.738;2023-05-11T06:07:09;100560.31;;;24.35;37.39
9415;BME280;4746;35.664;139.738;2023-05-11T06:09:36;100559.78;;;24.27;38.06
9415;BME280;4746;35.664;139.738;2023-05-11T06:12:04;100554.97;;;24.18;39.04
9415;BME280;4746;35.664;139.738;2023-05-11T06:14:32;100554.69;;;24.04;39.45
9415;BME280;4746;35.664;139.738;2023-05-11T06:16:59;100553.63;;;23.88;39.90
9415;BME280;4746;35.664;139.738;2023-05-11T06:19:27;100556.94;;;23.72;40.51
9415;BME280;4746;35.664;139.738;2023-05-11T06:21:55;100560.56;;;23.46;41.32
9415;BME280;4746;35.664;139.738;2023-05-11T06:24:22;100548.38;;;23.24;41.42
9415;BME280;4746;35.664;139.738;2023-05-11T06:26:50;100544.03;;;23.00;42.20
9415;BME280;4746;35.664;139.738;2023-05-11T06:29:17;100554.41;;;22.80;42.91
9415;BME280;4746;35.664;139.738;2023-05-11T06:31:48;100544.56;;;22.64;43.72
9415;BME280;4746;35.664;139.738;2023-05-11T06:34:20;100539.41;;;22.38;44.24
9415;BME280;4746;35.664;139.738;2023-05-11T06:36:49;100540.84;;;22.22;44.70
9415;BME280;4746;35.664;139.738;2023-05-11T06:39:16;100554.22;;;22.13;45.52
9415;BME280;4746;35.664;139.738;2023-05-11T06:41:44;100557.25;;;22.01;45.96
9415;BME280;4746;35.664;139.738;2023-05-11T06:44:11;100558.41;;;21.93;46.51
9415;BME280;4746;35.664;139.738;2023-05-11T06:46:39;100558.75;;;21.82;46.95
9415;BME280;4746;35.664;139.738;2023-05-11T06:49:07;100566.59;;;21.82;47.44
9415;BME280;4746;35.664;139.738;2023-05-11T06:51:35;100573.81;;;21.74;47.56
9415;BME280;4746;35.664;139.738;2023-05-11T06:54:02;100584.34;;;21.71;47.37
9415;BME280;4746;35.664;139.738;2023-05-11T06:56:30;100580.94;;;21.69;47.02
9415;BME280;4746;35.664;139.738;2023-05-11T06:58:59;100591.56;;;21.64;47.60
9415;BME280;4746;35.664;139.738;2023-05-11T07:01:27;100595.94;;;21.63;47.24
9415;BME280;4746;35.664;139.738;2023-05-11T07:03:55;100606.41;;;21.62;47.60
9415;BME280;4746;35.664;139.738;2023-05-11T07:06:22;100615.09;;;21.62;47.90
9415;BME280;4746;35.664;139.738;2023-05-11T07:08:50;100621.16;;;21.63;47.86
9415;BME280;4746;35.664;139.738;2023-05-11T07:11:17;100635.84;;;21.65;47.86
9415;BME280;4746;35.664;139.738;2023-05-11T07:13:45;100634.16;;;21.64;47.95
9415;BME280;4746;35.664;139.738;2023-05-11T07:16:13;100639.38;;;21.64;47.95
9415;BME280;4746;35.664;139.738;2023-05-11T07:18:40;100644.72;;;21.60;47.49
9415;BME280;4746;35.664;139.738;2023-05-11T07:21:08;100652.63;;;21.57;47.07
9415;BME280;4746;35.664;139.738;2023-05-11T07:23:35;100649.22;;;21.55;47.34
9415;BME280;4746;35.664;139.738;2023-05-11T07:26:03;100650.16;;;21.52;47.03
9415;BME280;4746;35.664;139.738;2023-05-11T07:28:37;100643.22;;;21.51;46.56
9415;BME280;4746;35.664;139.738;2023-05-11T07:31:05;100645.25;;;21.42;46.12
9415;BME280;4746;35.664;139.738;2023-05-11T07:33:33;100636.19;;;21.26;45.93
9415;BME280;4746;35.664;139.738;2023-05-11T07:36:03;100633.66;;;21.23;46.67
9415;BME280;4746;35.664;139.738;2023-05-11T07:38:31;100627.72;;;21.18;47.40
9415;BME280;4746;35.664;139.738;2023-05-11T07:40:59;100620.13;;;21.10;47.99
9415;BME280;4746;35.664;139.738;2023-05-11T07:43:27;100628.06;;;21.06;48.18
9415;BME280;4746;35.664;139.738;2023-05-11T07:45:54;100636.34;;;20.91;48.67
9415;BME280;4746;35.664;139.738;2023-05-11T07:48:22;100628.75;;;20.82;49.12
9415;BME280;4746;35.664;139.738;2023-05-11T07:50:49;100614.97;;;20.79;49.54
9415;BME280;4746;35.664;139.738;2023-05-11T07:53:17;100581.09;;;20.79;48.95
9415;BME280;4746;35.664;139.738;2023-05-11T07:55:44;100559.47;;;20.77;49.30
9415;BME280;4746;35.664;139.738;2023-05-11T07:58:13;100502.06;;;20.80;48.82
9415;BME280;4746;35.664;139.738;2023-05-11T08:00:41;100515.97;;;20.80;48.40
9415;BME280;4746;35.664;139.738;2023-05-11T08:03:09;100521.19;;;20.79;48.60
9415;BME280;4746;35.664;139.738;2023-05-11T08:05:37;100517.75;;;20.78;48.11
9415;BME280;4746;35.664;139.738;2023-05-11T08:08:05;100536.88;;;20.77;47.84
9415;BME280;4746;35.664;139.738;2023-05-11T08:10:32;100524.66;;;20.79;47.83
9415;BME280;4746;35.664;139.738;2023-05-11T08:13:01;100529.00;;;20.80;47.19
9415;BME280;4746;35.664;139.738;2023-05-11T08:15:29;100547.25;;;20.79;47.18
9415;BME280;4746;35.664;139.738;2023-05-11T08:17:56;100555.78;;;20.84;47.70
9415;BME280;4746;35.664;139.738;2023-05-11T08:20:24;100554.81;;;20.88;47.48
9415;BME280;4746;35.664;139.738;2023-05-11T08:22:51;100574.69;;;20.90;47.70
9415;BME280;4746;35.664;139.738;2023-05-11T08:25:19;100581.47;;;20.95;47.96
9415;BME280;4746;35.664;139.738;2023-05-11T08:27:48;100589.16;;;21.00;48.18
9415;BME280;4746;35.664;139.738;2023-05-11T08:30:18;100600.41;;;21.02;48.41
9415;BME280;4746;35.664;139.738;2023-05-11T08:32:45;100600.19;;;21.09;49.45
9415;BME280;4746;35.664;139.738;2023-05-11T08:35:13;100606.88;;;21.18;49.26
9415;BME280;4746;35.664;139.738;2023-05-11T08:37:40;100603.19;;;21.25;49.38
9415;BME280;4746;35.664;139.738;2023-05-11T08:40:13;100614.19;;;21.34;49.23
9415;BME280;4746;35.664;139.738;2023-05-11T08:42:45;100625.41;;;21.38;49.02
9415;BME280;4746;35.664;139.738;2023-05-11T08:45:16;100638.38;;;21.39;48.80
9415;BME280;4746;35.664;139.738;2023-05-11T08:47:49;100639.22;;;21.40;48.31
9415;BME280;4746;35.664;139.738;2023-05-11T08:50:16;100646.25;;;21.38;47.68
9415;BME280;4746;35.664;139.738;2023-05-11T08:52:44;100658.34;;;21.39;47.80
9415;BME280;4746;35.664;139.738;2023-05-11T08:55:12;100654.84;;;21.40;47.56
9415;BME280;4746;35.664;139.738;2023-05-11T08:57:43;100653.97;;;21.41;47.11
9415;BME280;4746;35.664;139.738;2023-05-11T09:00:13;100656.56;;;21.41;47.29
9415;BME280;4746;35.664;139.738;2023-05-11T09:02:42;100660.06;;;21.40;47.13
9415;BME280;4746;35.664;139.738;2023-05-11T09:05:10;100661.03;;;21.37;47.38
9415;BME280;4746;35.664;139.738;2023-05-11T09:07:41;100666.81;;;21.47;47.25
9415;BME280;4746;35.664;139.738;2023-05-11T09:10:10;100665.94;;;21.48;47.25
9415;BME280;4746;35.664;139.738;2023-05-11T09:12:44;100662.81;;;21.66;46.97
9415;BME280;4746;35.664;139.738;2023-05-11T09:15:12;100666.50;;;21.86;46.79
9415;BME280;4746;35.664;139.738;2023-05-11T09:17:39;100667.44;;;21.83;46.49
9415;BME280;4746;35.664;139.738;2023-05-11T09:20:08;100654.59;;;21.77;46.61
9415;BME280;4746;35.664;139.738;2023-05-11T09:22:45;100663.31;;;21.76;46.41
9415;BME280;4746;35.664;139.738;2023-05-11T09:25:14;100661.91;;;21.67;45.71
9415;BME280;4746;35.664;139.738;2023-05-11T09:27:46;100667.38;;;21.59;45.58
9415;BME280;4746;35.664;139.738;2023-05-11T09:30:20;100663.06;;;21.57;45.63
9415;BME280;4746;35.664;139.738;2023-05-11T09:32:57;100669.47;;;21.45;45.89
9415;BME280;4746;35.664;139.738;2023-05-11T09:35:30;100673.28;;;21.35;45.47
9415;BME280;4746;35.664;139.738;2023-05-11T09:38:10;100676.91;;;21.30;45.49
9415;BME280;4746;35.664;139.738;2023-05-11T09:40:40;100675.22;;;21.27;45.25
9415;BME280;4746;35.664;139.738;2023-05-11T09:43:26;100684.84;;;21.25;45.47
9415;BME280;4746;35.664;139.738;2023-05-11T09:45:57;100682.47;;;21.18;44.98
9415;BME280;4746;35.664;139.738;2023-05-11T09:48:32;100674.81;;;21.12;45.07
9415;BME280;4746;35.664;139.738;2023-05-11T09:51:06;100686.22;;;21.08;44.99
9415;BME280;4746;35.664;139.738;2023-05-11T09:53:44;100695.75;;;21.09;45.51
9415;BME280;4746;35.664;139.738;2023-05-11T09:56:12;100685.50;;;21.03;45.03
9415;BME280;4746;35.664;139.738;2023-05-11T09:58:51;100695.84;;;21.06;45.10
9415;BME280;4746;35.664;139.738;2023-05-11T10:01:32;100689.00;;;21.02;45.25
9415;BME280;4746;35.664;139.738;2023-05-11T10:04:01;100688.13;;;21.01;44.79
9415;BME280;4746;35.664;139.738;2023-05-11T10:06:51;100698.53;;;21.03;44.51
9415;BME280;4746;35.664;139.738;2023-05-11T10:09:23;100691.72;;;20.97;44.52
9415;BME280;4746;35.664;139.738;2023-05-11T10:11:55;100687.47;;;20.95;44.12
9415;BME280;4746;35.664;139.738;2023-05-11T10:14:26;100691.78;;;20.96;44.29
9415;BME280;4746;35.664;139.738;2023-05-11T10:16:57;100687.41;;;20.96;43.75
9415;BME280;4746;35.664;139.738;2023-05-11T10:19:28;100690.94;;;20.94;43.84
9415;BME280;4746;35.664;139.738;2023-05-11T10:21:56;100697.03;;;20.95;43.96
9415;BME280;4746;35.664;139.738;2023-05-11T10:24:27;100697.09;;;20.92;43.45
9415;BME280;4746;35.664;139.738;2023-05-11T10:26:56;100696.09;;;20.97;43.09
9415;BME280;4746;35.664;139.738;2023-05-11T10:29:25;100702.44;;;20.87;43.09
9415;BME280;4746;35.664;139.738;2023-05-11T10:31:55;100701.38;;;20.94;42.75
9415;BME280;4746;35.664;139.738;2023-05-11T10:34:25;100708.38;;;20.92;42.50
9415;BME280;4746;35.664;139.738;2023-05-11T10:36:55;100699.75;;;20.90;42.51
9415;BME280;4746;35.664;139.738;2023-05-11T10:39:28;100702.25;;;20.95;41.71
9415;BME280;4746;35.664;139.738;2023-05-11T11:03:15;100745.94;;;20.84;42.01
9415;BME280;4746;35.664;139.738;2023-05-11T11:05:43;100754.69;;;20.83;42.06
9415;BME280;4746;35.664;139.738;2023-05-11T11:08:12;100752.09;;;20.81;41.86
9415;BME280;4746;35.664;139.738;2023-05-11T11:10:42;100766.13;;;20.76;42.09
9415;BME280;4746;35.664;139.738;2023-05-11T11:13:16;100762.72;;;20.72;42.30
9415;BME280;4746;35.664;139.738;2023-05-11T11:18:32;100774.06;;;20.70;42.20
9415;BME280;4746;35.664;139.738;2023-05-11T11:21:01;100769.88;;;20.64;42.27
9415;BME280;4746;35.664;139.738;2023-05-11T11:23:49;100769.81;;;20.66;42.43
9415;BME280;4746;35.664;139.738;2023-05-11T11:26:45;100772.47;;;20.64;42.49
9415;BME280;4746;35.664;139.738;2023-05-11T11:29:13;100777.09;;;20.53;42.79
9415;BME280;4746;35.664;139.738;2023-05-11T11:31:41;100772.91;;;20.46;42.81
9415;BME280;4746;35.664;139.738;2023-05-11T11:39:29;100786.06;;;20.42;43.06
9415;BME280;4746;35.664;139.738;2023-05-11T11:42:32;100783.50;;;20.39;43.09
9415;BME280;4746;35.664;139.738;2023-05-11T11:45:27;100784.53;;;20.33;42.96
9415;BME280;4746;35.664;139.738;2023-05-11T11:48:32;100788.16;;;20.25;43.16
9415;BME280;4746;35.664;139.738;2023-05-11T11:51:10;100788.41;;;20.16;43.58
9415;BME280;4746;35.664;139.738;2023-05-11T12:01:29;100792.66;;;20.19;44.46
9415;BME280;4746;35.664;139.738;2023-05-11T12:04:19;100803.91;;;20.21;44.46
9415;BME280;4746;35.664;139.738;2023-05-11T12:06:57;100797.00;;;20.20;44.75
9415;BME280;4746;35.664;139.738;2023-05-11T12:09:26;100796.25;;;20.15;44.64
9415;BME280;4746;35.664;139.738;2023-05-11T12:11:54;100797.09;;;20.15;44.94
9415;BME280;4746;35.664;139.738;2023-05-11T12:14:22;100801.41;;;20.16;45.08
9415;BME280;4746;35.664;139.738;2023-05-11T12:17:07;100795.13;;;20.24;44.84
9415;BME280;4746;35.664;139.738;2023-05-11T12:19:43;100800.44;;;20.22;45.09
9415;BME280;4746;35.664;139.738;2023-05-11T12:22:12;100795.28;;;20.19;45.61
9415;BME280;4746;35.664;139.738;2023-05-11T12:24:43;100802.25;;;20.18;45.74
9415;BME280;4746;35.664;139.738;2023-05-11T12:27:10;100803.97;;;20.18;46.09
9415;BME280;4746;35.664;139.738;2023-05-11T12:29:38;100799.66;;;20.17;45.89
9415;BME280;4746;35.664;139.738;2023-05-11T12:32:11;100813.44;;;20.20;45.74
9415;BME280;4746;35.664;139.738;2023-05-11T12:34:39;100815.25;;;20.17;46.15
9415;BME280;4746;35.664;139.738;2023-05-11T12:37:07;100810.94;;;20.17;46.36
9415;BME280;4746;35.664;139.738;2023-05-11T12:39:35;100813.50;;;20.19;46.78
9415;BME280;4746;35.664;139.738;2023-05-11T12:42:03;100806.50;;;20.21;47.02
9415;BME280;4746;35.664;139.738;2023-05-11T12:44:31;100809.03;;;20.23;47.17
9415;BME280;4746;35.664;139.738;2023-05-11T12:46:59;100808.16;;;20.24;46.61
9415;BME280;4746;35.664;139.738;2023-05-11T12:49:27;100809.88;;;20.25;46.65
9415;BME280;4746;35.664;139.738;2023-05-11T12:52:05;100810.63;;;20.30;46.93
9415;BME280;4746;35.664;139.738;2023-05-11T12:54:36;100814.19;;;20.25;47.36
9415;BME280;4746;35.664;139.738;2023-05-11T12:57:22;100809.88;;;20.25;46.91
9415;BME280;4746;35.664;139.738;2023-05-11T13:02:49;100809.03;;;20.23;46.30
9415;BME280;4746;35.664;139.738;2023-05-11T13:05:23;100812.53;;;20.23;47.15
9415;BME280;4746;35.664;139.738;2023-05-11T13:08:03;100808.97;;;20.26;47.32
9415;BME280;4746;35.664;139.738;2023-05-11T13:10:32;100795.22;;;20.20;47.96
9415;BME280;4746;35.664;139.738;2023-05-11T13:12:59;100800.44;;;20.22;48.48
9415;BME280;4746;35.664;139.738;2023-05-11T13:15:27;100807.31;;;20.23;48.58
9415;BME280;4746;35.664;139.738;2023-05-11T13:18:00;100815.91;;;20.27;48.70
9415;BME280;4746;35.664;139.738;2023-05-11T13:20:34;100818.50;;;20.27;48.84
9415;BME280;4746;35.664;139.738;2023-05-11T13:23:11;100815.91;;;20.27;49.09
9415;BME280;4746;35.664;139.738;2023-05-11T13:28:19;100815.16;;;20.21;49.34
9415;BME280;4746;35.664;139.738;2023-05-11T13:30:50;100815.22;;;20.20;49.50
9415;BME280;4746;35.664;139.738;2023-05-11T13:33:19;100808.34;;;20.17;49.59
9415;BME280;4746;35.664;139.738;2023-05-11T13:35:48;100807.44;;;20.17;49.63
9415;BME280;4746;35.664;139.738;2023-05-11T13:38:15;100806.56;;;20.18;49.70
9415;BME280;4746;35.664;139.738;2023-05-11T13:40:43;100815.25;;;20.18;49.78
9415;BME280;4746;35.664;139.738;2023-05-11T13:43:12;100814.38;;;20.18;50.02
9415;BME280;4746;35.664;139.738;2023-05-11T13:45:40;100811.72;;;20.19;49.76
9415;BME280;4746;35.664;139.738;2023-05-11T13:48:08;100815.22;;;20.20;49.82
9415;BME280;4746;35.664;139.738;2023-05-11T13:50:36;100819.53;;;20.21;49.32
9415;BME280;4746;35.664;139.738;2023-05-11T13:53:05;100811.69;;;20.22;49.40
9415;BME280;4746;35.664;139.738;2023-05-11T13:55:35;100814.19;;;20.26;49.47
9415;BME280;4746;35.664;139.738;2023-05-11T13:58:04;100809.81;;;20.27;49.46